sensor_id;sensor_type;location;lat;lon;timestamp;temperature;humidity
24158;DHT22;12316;50.904;4.200;2023-09-19T00:02:04;16.50;99.90
24158;DHT22;12316;50.904;4.200;2023-09-19T00:04:32;16.40;99.90
24158;DHT22;12316;50.904;4.200;2023-09-19T00:07:01;16.40;99.90
24158;DHT22;12316;50.904;4.200;2023-09-19T00:09:28;16.30;99.90
24158;DHT22;12316;50.904;4.200;2023-09-19T00:11:53;16.40;99.90
24158;DHT22;12316;50.904;4.200;2023-09-19T00:14:20;16.40;99.90
24158;DHT22;12316;50.904;4.200;2023-09-19T00:16:50;16.40;99.90
24158;DHT22;12316;50.904;4.200;2023-09-19T00:19:15;16.40;99.90
24158;DHT22;12316;50.904;4.200;2023-09-19T00:21:41;16.40;99.90
24158;DHT22;12316;50.904;4.200;2023-09-19T00:24:08;16.40;99.90
24158;DHT22;12316;50.904;4.200;2023-09-19T00:26:35;16.40;99.90
24158;DHT22;12316;50.904;4.200;2023-09-19T00:29:01;16.30;99.90
24158;DHT22;12316;50.904;4.200;2023-09-19T00:31:34;16.30;99.90
24158;DHT22;12316;50.904;4.200;2023-09-19T00:33:59;16.20;99.90
24158;DHT22;12316;50.904;4.200;2023-09-19T00:36:37;16.30;99.90
24158;DHT22;12316;50.904;4.200;2023-09-19T00:39:05;16.20;99.90
24158;DHT22;12316;50.904;4.200;2023-09-19T00:41:34;16.30;99.90
24158;DHT22;12316;50.904;4.200;2023-09-19T00:44:02;16.10;99.90
24158;DHT22;12316;50.904;4.200;2023-09-19T00:46:31;16.00;99.90
24158;DHT22;12316;50.904;4.200;2023-09-19T00:48:58;16.00;99.90
24158;DHT22;12316;50.904;4.200;2023-09-19T00:51:25;16.00;99.90
24158;DHT22;12316;50.904;4.200;2023-09-19T00:53:54;15.90;99.90
24158;DHT22;12316;50.904;4.200;2023-09-19T00:56:22;15.90;99.90
24158;DHT22;12316;50.904;4.200;2023-09-19T00:58:49;16.00;99.90
24158;DHT22;12316;50.904;4.200;2023-09-19T01:01:15;16.10;99.90
24158;DHT22;12316;50.904;4.200;2023-09-19T01:03:41;16.10;99.90
24158;DHT22;12316;50.904;4.200;2023-09-19T01:06:08;16.00;99.90
24158;DHT22;12316;50.904;4.200;2023-09-19T01:08:34;16.10;99.90
24158;DHT22;12316;50.904;4.200;2023-09-19T01:14:12;16.00;99.90
24158;DHT22;12316;50.904;4.200;2023-09-19T01:16:42;16.00;99.90
24158;DHT22;12316;50.904;4.200;2023-09-19T01:22:00;15.90;99.90
24158;DHT22;12316;50.904;4.200;2023-09-19T01:30:10;15.80;99.90
24158;DHT22;12316;50.904;4.200;2023-09-19T01:32:40;15.80;99.90
24158;DHT22;12316;50.904;4.200;2023-09-19T01:35:07;15.80;99.90
24158;DHT22;12316;50.904;4.200;2023-09-19T01:37:38;15.70;99.90
24158;DHT22;12316;50.904;4.200;2023-09-19T01:40:10;15.80;99.90
24158;DHT22;12316;50.904;4.200;2023-09-19T01:43:05;15.70;99.90
24158;DHT22;12316;50.904;4.200;2023-09-19T01:45:59;15.70;99.90
24158;DHT22;12316;50.904;4.200;2023-09-19T01:48:46;15.70;99.90
24158;DHT22;12316;50.904;4.200;2023-09-19T01:51:43;15.70;99.90
24158;DHT22;12316;50.904;4.200;2023-09-19T01:54:16;15.80;99.90
24158;DHT22;12316;50.904;4.200;2023-09-19T01:59:54;15.70;99.90
24158;DHT22;12316;50.904;4.200;2023-09-19T02:02:23;15.70;99.90
24158;DHT22;12316;50.904;4.200;2023-09-19T02:04:49;15.60;99.90
24158;DHT22;12316;50.904;4.200;2023-09-19T02:07:16;15.60;99.90
24158;DHT22;12316;50.904;4.200;2023-09-19T02:09:42;15.70;99.90
24158;DHT22;12316;50.904;4.200;2023-09-19T02:12:09;15.80;99.90
24158;DHT22;12316;50.904;4.200;2023-09-19T02:14:35;15.70;99.90
24158;DHT22;12316;50.904;4.200;2023-09-19T02:17:04;15.80;99.90
24158;DHT22;12316;50.904;4.200;2023-09-19T02:19:33;15.90;99.90
24158;DHT22;12316;50.904;4.200;2023-09-19T02:21:59;16.10;99.90
24158;DHT22;12316;50.904;4.200;2023-09-19T02:24:25;16.20;99.90
24158;DHT22;12316;50.904;4.200;2023-09-19T02:26:52;16.20;99.90
24158;DHT22;12316;50.904;4.200;2023-09-19T02:29:18;16.00;99.90
24158;DHT22;12316;50.904;4.200;2023-09-19T02:31:43;16.00;99.90
24158;DHT22;12316;50.904;4.200;2023-09-19T02:34:11;16.10;99.90
24158;DHT22;12316;50.904;4.200;2023-09-19T02:36:37;16.00;99.90
24158;DHT22;12316;50.904;4.200;2023-09-19T02:39:03;16.00;99.90
24158;DHT22;12316;50.904;4.200;2023-09-19T02:41:30;16.00;99.90
24158;DHT22;12316;50.904;4.200;2023-09-19T02:43:58;16.00;99.90
24158;DHT22;12316;50.904;4.200;2023-09-19T02:46:24;16.00;99.90
24158;DHT22;12316;50.904;4.200;2023-09-19T02:48:50;16.20;99.90
24158;DHT22;12316;50.904;4.200;2023-09-19T02:51:16;16.20;99.90
24158;DHT22;12316;50.904;4.200;2023-09-19T02:53:42;16.10;99.90
24158;DHT22;12316;50.904;4.200;2023-09-19T02:56:08;16.10;99.90
24158;DHT22;12316;50.904;4.200;2023-09-19T02:58:35;16.10;99.90
24158;DHT22;12316;50.904;4.200;2023-09-19T03:01:11;16.10;99.90
24158;DHT22;12316;50.904;4.200;2023-09-19T03:03:40;16.20;99.90
24158;DHT22;12316;50.904;4.200;2023-09-19T03:06:06;16.20;99.90
24158;DHT22;12316;50.904;4.200;2023-09-19T03:08:33;16.20;99.90
24158;DHT22;12316;50.904;4.200;2023-09-19T03:11:01;16.30;99.90
24158;DHT22;12316;50.904;4.200;2023-09-19T03:13:27;16.40;99.90
24158;DHT22;12316;50.904;4.200;2023-09-19T03:15:54;16.30;99.90
24158;DHT22;12316;50.904;4.200;2023-09-19T03:18:25;16.20;99.90
24158;DHT22;12316;50.904;4.200;2023-09-19T03:20:56;16.30;99.90
24158;DHT22;12316;50.904;4.200;2023-09-19T03:23:22;16.30;99.90
24158;DHT22;12316;50.904;4.200;2023-09-19T03:25:48;16.30;99.90
24158;DHT22;12316;50.904;4.200;2023-09-19T03:28:14;16.20;99.90
24158;DHT22;12316;50.904;4.200;2023-09-19T03:30:41;16.20;99.90
24158;DHT22;12316;50.904;4.200;2023-09-19T03:33:07;16.00;99.90
24158;DHT22;12316;50.904;4.200;2023-09-19T03:35:33;15.90;99.90
24158;DHT22;12316;50.904;4.200;2023-09-19T03:38:00;15.90;99.90
24158;DHT22;12316;50.904;4.200;2023-09-19T03:40:25;15.90;99.90
24158;DHT22;12316;50.904;4.200;2023-09-19T03:42:51;15.90;99.90
24158;DHT22;12316;50.904;4.200;2023-09-19T03:45:17;15.90;99.90
24158;DHT22;12316;50.904;4.200;2023-09-19T03:47:44;15.80;99.90
24158;DHT22;12316;50.904;4.200;2023-09-19T03:50:12;15.80;99.90
24158;DHT22;12316;50.904;4.200;2023-09-19T03:52:41;15.70;99.90
24158;DHT22;12316;50.904;4.200;2023-09-19T03:55:07;15.70;99.90
24158;DHT22;12316;50.904;4.200;2023-09-19T03:57:35;15.70;99.90
24158;DHT22;12316;50.904;4.200;2023-09-19T04:00:02;15.70;99.90
24158;DHT22;12316;50.904;4.200;2023-09-19T04:02:28;15.70;99.90
24158;DHT22;12316;50.904;4.200;2023-09-19T04:04:58;15.70;99.90
24158;DHT22;12316;50.904;4.200;2023-09-19T04:07:24;15.70;99.90
24158;DHT22;12316;50.904;4.200;2023-09-19T04:09:51;15.60;99.90
24158;DHT22;12316;50.904;4.200;2023-09-19T04:12:20;15.50;99.90
24158;DHT22;12316;50.904;4.200;2023-09-19T04:14:46;15.50;99.90
24158;DHT22;12316;50.904;4.200;2023-09-19T04:17:12;15.40;99.90
24158;DHT22;12316;50.904;4.200;2023-09-19T04:19:37;15.40;99.90
24158;DHT22;12316;50.904;4.200;2023-09-19T04:22:03;15.40;99.90
24158;DHT22;12316;50.904;4.200;2023-09-19T04:24:29;15.30;99.90
24158;DHT22;12316;50.904;4.200;2023-09-19T04:26:56;15.20;99.90
24158;DHT22;12316;50.904;4.200;2023-09-19T04:29:22;15.10;99.90
24158;DHT22;12316;50.904;4.200;2023-09-19T04:31:48;15.20;99.90
24158;DHT22;12316;50.904;4.200;2023-09-19T04:34:13;15.10;99.90
24158;DHT22;12316;50.904;4.200;2023-09-19T04:36:42;15.10;99.90
24158;DHT22;12316;50.904;4.200;2023-09-19T04:39:09;15.00;99.90
24158;DHT22;12316;50.904;4.200;2023-09-19T04:41:37;14.90;99.90
24158;DHT22;12316;50.904;4.200;2023-09-19T04:44:06;15.00;99.90
24158;DHT22;12316;50.904;4.200;2023-09-19T04:46:33;15.00;99.90
24158;DHT22;12316;50.904;4.200;2023-09-19T04:48:58;15.00;99.90
24158;DHT22;12316;50.904;4.200;2023-09-19T04:51:24;15.00;99.90
24158;DHT22;12316;50.904;4.200;2023-09-19T04:53:51;15.00;99.90
24158;DHT22;12316;50.904;4.200;2023-09-19T04:56:17;15.00;99.90
24158;DHT22;12316;50.904;4.200;2023-09-19T04:58:44;15.00;99.90
24158;DHT22;12316;50.904;4.200;2023-09-19T05:01:10;14.90;99.90
24158;DHT22;12316;50.904;4.200;2023-09-19T05:03:37;14.90;99.90
24158;DHT22;12316;50.904;4.200;2023-09-19T05:06:03;14.90;99.90
24158;DHT22;12316;50.904;4.200;2023-09-19T05:08:30;15.00;99.90
24158;DHT22;12316;50.904;4.200;2023-09-19T05:10:56;14.90;99.90
24158;DHT22;12316;50.904;4.200;2023-09-19T05:13:22;15.00;99.90
24158;DHT22;12316;50.904;4.200;2023-09-19T05:15:51;15.00;99.90
24158;DHT22;12316;50.904;4.200;2023-09-19T05:18:18;15.10;99.90
24158;DHT22;12316;50.904;4.200;2023-09-19T05:20:43;15.20;99.90
24158;DHT22;12316;50.904;4.200;2023-09-19T05:23:09;15.20;99.90
24158;DHT22;12316;50.904;4.200;2023-09-19T05:25:38;15.10;99.90
24158;DHT22;12316;50.904;4.200;2023-09-19T05:28:09;15.10;99.90
24158;DHT22;12316;50.904;4.200;2023-09-19T05:30:37;15.10;99.90
24158;DHT22;12316;50.904;4.200;2023-09-19T05:33:04;15.10;99.90
24158;DHT22;12316;50.904;4.200;2023-09-19T05:35:30;15.10;99.90
24158;DHT22;12316;50.904;4.200;2023-09-19T05:37:57;15.20;99.90
24158;DHT22;12316;50.904;4.200;2023-09-19T05:40:24;15.20;99.90
24158;DHT22;12316;50.904;4.200;2023-09-19T05:42:50;15.20;99.90
24158;DHT22;12316;50.904;4.200;2023-09-19T05:45:16;15.20;99.90
24158;DHT22;12316;50.904;4.200;2023-09-19T05:47:50;15.20;99.90
24158;DHT22;12316;50.904;4.200;2023-09-19T05:50:16;15.10;99.90
24158;DHT22;12316;50.904;4.200;2023-09-19T05:52:50;15.20;99.90
24158;DHT22;12316;50.904;4.200;2023-09-19T05:55:17;15.20;99.90
24158;DHT22;12316;50.904;4.200;2023-09-19T05:57:43;15.20;99.90
24158;DHT22;12316;50.904;4.200;2023-09-19T06:00:09;15.10;99.90
24158;DHT22;12316;50.904;4.200;2023-09-19T06:02:37;15.20;99.90
24158;DHT22;12316;50.904;4.200;2023-09-19T06:05:05;15.20;99.90
24158;DHT22;12316;50.904;4.200;2023-09-19T06:07:32;15.30;99.90
24158;DHT22;12316;50.904;4.200;2023-09-19T06:10:05;15.30;99.90
24158;DHT22;12316;50.904;4.200;2023-09-19T06:12:32;15.50;99.90
24158;DHT22;12316;50.904;4.200;2023-09-19T06:15:03;15.50;99.90
24158;DHT22;12316;50.904;4.200;2023-09-19T06:17:31;15.60;99.90
24158;DHT22;12316;50.904;4.200;2023-09-19T06:19:56;15.60;99.90
24158;DHT22;12316;50.904;4.200;2023-09-19T06:22:22;15.70;99.90
24158;DHT22;12316;50.904;4.200;2023-09-19T06:24:50;15.70;99.90
24158;DHT22;12316;50.904;4.200;2023-09-19T06:27:15;15.70;99.90
24158;DHT22;12316;50.904;4.200;2023-09-19T06:29:41;15.70;99.90
24158;DHT22;12316;50.904;4.200;2023-09-19T06:32:10;15.70;99.90
24158;DHT22;12316;50.904;4.200;2023-09-19T06:34:36;15.90;99.90
24158;DHT22;12316;50.904;4.200;2023-09-19T06:37:04;15.90;99.90
24158;DHT22;12316;50.904;4.200;2023-09-19T06:39:32;16.00;99.90
24158;DHT22;12316;50.904;4.200;2023-09-19T06:41:58;16.10;99.90
24158;DHT22;12316;50.904;4.200;2023-09-19T06:44:25;16.00;99.90
24158;DHT22;12316;50.904;4.200;2023-09-19T06:46:51;16.10;99.90
24158;DHT22;12316;50.904;4.200;2023-09-19T06:49:18;16.20;99.90
24158;DHT22;12316;50.904;4.200;2023-09-19T06:51:43;16.10;99.90
24158;DHT22;12316;50.904;4.200;2023-09-19T06:54:10;16.20;99.90
24158;DHT22;12316;50.904;4.200;2023-09-19T06:56:35;16.10;99.90
24158;DHT22;12316;50.904;4.200;2023-09-19T06:59:01;16.20;99.90
24158;DHT22;12316;50.904;4.200;2023-09-19T07:01:28;16.20;99.90
24158;DHT22;12316;50.904;4.200;2023-09-19T07:03:54;16.30;99.90
24158;DHT22;12316;50.904;4.200;2023-09-19T07:06:20;16.30;99.90
24158;DHT22;12316;50.904;4.200;2023-09-19T07:08:46;16.30;99.90
24158;DHT22;12316;50.904;4.200;2023-09-19T07:11:11;16.40;99.90
24158;DHT22;12316;50.904;4.200;2023-09-19T07:13:38;16.50;99.90
24158;DHT22;12316;50.904;4.200;2023-09-19T07:16:04;16.60;99.90
24158;DHT22;12316;50.904;4.200;2023-09-19T07:18:30;16.80;99.90
24158;DHT22;12316;50.904;4.200;2023-09-19T07:20:57;16.70;99.90
24158;DHT22;12316;50.904;4.200;2023-09-19T07:23:30;16.80;99.90
24158;DHT22;12316;50.904;4.200;2023-09-19T07:26:01;16.80;99.90
24158;DHT22;12316;50.904;4.200;2023-09-19T07:28:27;16.90;99.90
24158;DHT22;12316;50.904;4.200;2023-09-19T07:30:53;16.90;99.90
24158;DHT22;12316;50.904;4.200;2023-09-19T07:33:19;16.90;99.90
24158;DHT22;12316;50.904;4.200;2023-09-19T07:35:46;16.90;99.90
24158;DHT22;12316;50.904;4.200;2023-09-19T07:38:12;17.00;99.90
24158;DHT22;12316;50.904;4.200;2023-09-19T07:40:38;17.10;99.90
24158;DHT22;12316;50.904;4.200;2023-09-19T07:43:03;17.30;99.90
24158;DHT22;12316;50.904;4.200;2023-09-19T07:45:30;17.40;99.90
24158;DHT22;12316;50.904;4.200;2023-09-19T07:47:57;17.50;99.90
24158;DHT22;12316;50.904;4.200;2023-09-19T07:50:23;17.60;99.90
24158;DHT22;12316;50.904;4.200;2023-09-19T07:52:49;17.50;99.90
24158;DHT22;12316;50.904;4.200;2023-09-19T07:55:19;17.60;99.90
24158;DHT22;12316;50.904;4.200;2023-09-19T07:57:46;17.60;99.90
24158;DHT22;12316;50.904;4.200;2023-09-19T08:00:16;17.70;99.90
24158;DHT22;12316;50.904;4.200;2023-09-19T08:02:43;17.70;99.90
24158;DHT22;12316;50.904;4.200;2023-09-19T08:05:11;17.70;99.90
24158;DHT22;12316;50.904;4.200;2023-09-19T08:07:41;17.90;99.90
24158;DHT22;12316;50.904;4.200;2023-09-19T08:10:08;17.80;99.90
24158;DHT22;12316;50.904;4.200;2023-09-19T08:12:40;17.80;99.90
24158;DHT22;12316;50.904;4.200;2023-09-19T08:15:17;18.00;99.90
24158;DHT22;12316;50.904;4.200;2023-09-19T08:17:44;18.10;99.90
24158;DHT22;12316;50.904;4.200;2023-09-19T08:20:10;18.10;99.90
24158;DHT22;12316;50.904;4.200;2023-09-19T08:22:52;18.30;99.90
24158;DHT22;12316;50.904;4.200;2023-09-19T08:25:22;18.50;99.90
24158;DHT22;12316;50.904;4.200;2023-09-19T08:27:48;18.70;99.90
24158;DHT22;12316;50.904;4.200;2023-09-19T08:30:16;18.50;99.90
24158;DHT22;12316;50.904;4.200;2023-09-19T08:32:42;18.40;99.90
24158;DHT22;12316;50.904;4.200;2023-09-19T08:35:12;18.50;99.90
24158;DHT22;12316;50.904;4.200;2023-09-19T08:37:37;18.60;99.90
24158;DHT22;12316;50.904;4.200;2023-09-19T08:40:03;18.70;99.90
24158;DHT22;12316;50.904;4.200;2023-09-19T08:42:31;18.60;99.90
24158;DHT22;12316;50.904;4.200;2023-09-19T08:44:58;18.70;99.90
24158;DHT22;12316;50.904;4.200;2023-09-19T08:47:35;18.90;99.90
24158;DHT22;12316;50.904;4.200;2023-09-19T08:50:11;19.10;99.90
24158;DHT22;12316;50.904;4.200;2023-09-19T08:52:43;19.00;99.90
24158;DHT22;12316;50.904;4.200;2023-09-19T08:55:13;19.20;99.90
24158;DHT22;12316;50.904;4.200;2023-09-19T08:57:46;19.40;99.90
24158;DHT22;12316;50.904;4.200;2023-09-19T09:00:15;19.30;99.90
24158;DHT22;12316;50.904;4.200;2023-09-19T09:02:44;19.20;99.90
24158;DHT22;12316;50.904;4.200;2023-09-19T09:05:10;19.20;99.90
24158;DHT22;12316;50.904;4.200;2023-09-19T09:07:37;19.20;99.90
24158;DHT22;12316;50.904;4.200;2023-09-19T09:10:04;19.20;99.90
24158;DHT22;12316;50.904;4.200;2023-09-19T09:12:30;19.30;99.90
24158;DHT22;12316;50.904;4.200;2023-09-19T09:14:57;19.40;99.90
24158;DHT22;12316;50.904;4.200;2023-09-19T09:17:26;19.40;99.90
24158;DHT22;12316;50.904;4.200;2023-09-19T09:19:53;19.30;99.90
24158;DHT22;12316;50.904;4.200;2023-09-19T09:22:19;19.40;99.90
24158;DHT22;12316;50.904;4.200;2023-09-19T09:24:53;19.30;99.90
24158;DHT22;12316;50.904;4.200;2023-09-19T09:27:19;19.40;99.90
24158;DHT22;12316;50.904;4.200;2023-09-19T09:29:48;19.50;99.90
24158;DHT22;12316;50.904;4.200;2023-09-19T09:34:57;19.60;99.90
24158;DHT22;12316;50.904;4.200;2023-09-19T09:37:23;19.60;99.90
24158;DHT22;12316;50.904;4.200;2023-09-19T09:39:51;19.60;99.90
24158;DHT22;12316;50.904;4.200;2023-09-19T09:42:45;19.60;99.90
24158;DHT22;12316;50.904;4.200;2023-09-19T09:45:16;19.50;99.90
24158;DHT22;12316;50.904;4.200;2023-09-19T09:47:49;19.40;99.90
24158;DHT22;12316;50.904;4.200;2023-09-19T09:50:30;19.20;99.90
24158;DHT22;12316;50.904;4.200;2023-09-19T09:53:29;19.20;99.90
24158;DHT22;12316;50.904;4.200;2023-09-19T09:56:09;19.20;99.90
24158;DHT22;12316;50.904;4.200;2023-09-19T09:58:51;19.20;99.90
24158;DHT22;12316;50.904;4.200;2023-09-19T10:01:21;19.00;99.90
24158;DHT22;12316;50.904;4.200;2023-09-19T10:03:57;18.90;99.90
24158;DHT22;12316;50.904;4.200;2023-09-19T10:06:23;18.90;99.90
24158;DHT22;12316;50.904;4.200;2023-09-19T10:09:04;19.00;99.90
24158;DHT22;12316;50.904;4.200;2023-09-19T10:11:46;19.30;99.90
24158;DHT22;12316;50.904;4.200;2023-09-19T10:14:16;19.40;99.90
24158;DHT22;12316;50.904;4.200;2023-09-19T10:16:46;19.60;99.90
24158;DHT22;12316;50.904;4.200;2023-09-19T10:19:23;19.60;99.90
24158;DHT22;12316;50.904;4.200;2023-09-19T10:21:54;19.70;99.90
24158;DHT22;12316;50.904;4.200;2023-09-19T10:24:22;19.80;99.90
24158;DHT22;12316;50.904;4.200;2023-09-19T10:26:49;19.80;99.90
24158;DHT22;12316;50.904;4.200;2023-09-19T10:29:17;19.80;99.90
24158;DHT22;12316;50.904;4.200;2023-09-19T10:31:44;19.70;99.90
24158;DHT22;12316;50.904;4.200;2023-09-19T10:34:14;19.90;99.90
24158;DHT22;12316;50.904;4.200;2023-09-19T10:36:44;19.90;99.90
24158;DHT22;12316;50.904;4.200;2023-09-19T10:39:11;19.90;99.90
24158;DHT22;12316;50.904;4.200;2023-09-19T10:41:39;19.90;99.90
24158;DHT22;12316;50.904;4.200;2023-09-19T10:44:05;19.90;99.90
24158;DHT22;12316;50.904;4.200;2023-09-19T10:46:34;19.80;99.90
24158;DHT22;12316;50.904;4.200;2023-09-19T10:49:01;19.80;99.90
24158;DHT22;12316;50.904;4.200;2023-09-19T10:51:31;20.00;99.90
24158;DHT22;12316;50.904;4.200;2023-09-19T10:54:10;20.10;99.90
24158;DHT22;12316;50.904;4.200;2023-09-19T10:56:43;20.20;99.90
24158;DHT22;12316;50.904;4.200;2023-09-19T10:59:16;20.30;99.90
24158;DHT22;12316;50.904;4.200;2023-09-19T11:01:50;20.30;99.90
24158;DHT22;12316;50.904;4.200;2023-09-19T11:04:35;20.20;99.90
24158;DHT22;12316;50.904;4.200;2023-09-19T11:07:12;20.40;99.90
24158;DHT22;12316;50.904;4.200;2023-09-19T11:12:12;20.70;99.90
24158;DHT22;12316;50.904;4.200;2023-09-19T11:14:40;20.70;99.90
24158;DHT22;12316;50.904;4.200;2023-09-19T11:25:47;21.40;99.90
24158;DHT22;12316;50.904;4.200;2023-09-19T11:30:44;21.40;99.90
24158;DHT22;12316;50.904;4.200;2023-09-19T11:33:29;21.60;99.90
24158;DHT22;12316;50.904;4.200;2023-09-19T11:36:04;21.80;99.90
24158;DHT22;12316;50.904;4.200;2023-09-19T11:49:18;21.90;99.90
24158;DHT22;12316;50.904;4.200;2023-09-19T11:51:51;21.90;99.90
24158;DHT22;12316;50.904;4.200;2023-09-19T11:54:18;21.80;99.90
24158;DHT22;12316;50.904;4.200;2023-09-19T11:56:49;22.00;99.90
24158;DHT22;12316;50.904;4.200;2023-09-19T11:59:23;22.10;99.90
24158;DHT22;12316;50.904;4.200;2023-09-19T12:01:53;22.10;99.90
24158;DHT22;12316;50.904;4.200;2023-09-19T12:04:53;22.20;99.90
24158;DHT22;12316;50.904;4.200;2023-09-19T12:07:19;22.20;99.90
24158;DHT22;12316;50.904;4.200;2023-09-19T12:09:47;22.30;99.90
24158;DHT22;12316;50.904;4.200;2023-09-19T12:12:25;22.40;99.90
24158;DHT22;12316;50.904;4.200;2023-09-19T12:14:56;22.40;99.90
24158;DHT22;12316;50.904;4.200;2023-09-19T12:17:38;22.20;99.90
24158;DHT22;12316;50.904;4.200;2023-09-19T12:20:08;22.00;99.90
24158;DHT22;12316;50.904;4.200;2023-09-19T12:22:41;21.80;99.90
24158;DHT22;12316;50.904;4.200;2023-09-19T12:25:09;21.80;99.90
24158;DHT22;12316;50.904;4.200;2023-09-19T12:27:47;21.70;99.90
24158;DHT22;12316;50.904;4.200;2023-09-19T12:30:14;21.70;99.90
24158;DHT22;12316;50.904;4.200;2023-09-19T12:32:44;21.70;99.90
24158;DHT22;12316;50.904;4.200;2023-09-19T12:35:27;21.60;99.90
24158;DHT22;12316;50.904;4.200;2023-09-19T12:37:54;21.70;99.90
24158;DHT22;12316;50.904;4.200;2023-09-19T12:40:21;22.00;99.90
24158;DHT22;12316;50.904;4.200;2023-09-19T12:42:54;22.10;99.90
24158;DHT22;12316;50.904;4.200;2023-09-19T12:45:32;22.20;99.90
24158;DHT22;12316;50.904;4.200;2023-09-19T12:51:07;22.60;99.90
24158;DHT22;12316;50.904;4.200;2023-09-19T12:56:06;22.70;99.90
24158;DHT22;12316;50.904;4.200;2023-09-19T12:58:34;22.50;99.90
24158;DHT22;12316;50.904;4.200;2023-09-19T13:01:00;22.40;99.90
24158;DHT22;12316;50.904;4.200;2023-09-19T13:03:27;22.30;99.90
24158;DHT22;12316;50.904;4.200;2023-09-19T13:06:02;22.20;99.90
24158;DHT22;12316;50.904;4.200;2023-09-19T13:08:34;22.20;99.90
24158;DHT22;12316;50.904;4.200;2023-09-19T13:11:14;22.40;99.90
24158;DHT22;12316;50.904;4.200;2023-09-19T13:13:49;22.40;99.90
24158;DHT22;12316;50.904;4.200;2023-09-19T13:16:20;22.50;99.90
24158;DHT22;12316;50.904;4.200;2023-09-19T13:18:53;22.70;99.90
24158;DHT22;12316;50.904;4.200;2023-09-19T13:21:34;22.80;99.90
24158;DHT22;12316;50.904;4.200;2023-09-19T13:24:22;23.00;99.90
24158;DHT22;12316;50.904;4.200;2023-09-19T13:26:56;22.90;99.90
24158;DHT22;12316;50.904;4.200;2023-09-19T13:29:22;22.70;99.90
24158;DHT22;12316;50.904;4.200;2023-09-19T13:31:52;22.60;99.90
24158;DHT22;12316;50.904;4.200;2023-09-19T13:34:21;22.50;99.90
24158;DHT22;12316;50.904;4.200;2023-09-19T13:36:47;22.30;99.90
24158;DHT22;12316;50.904;4.200;2023-09-19T13:39:16;22.20;99.90
24158;DHT22;12316;50.904;4.200;2023-09-19T13:41:44;22.20;99.90
24158;DHT22;12316;50.904;4.200;2023-09-19T13:44:10;22.40;99.90
24158;DHT22;12316;50.904;4.200;2023-09-19T13:46:36;22.40;99.90
24158;DHT22;12316;50.904;4.200;2023-09-19T13:49:02;22.50;99.90
24158;DHT22;12316;50.904;4.200;2023-09-19T13:51:31;22.30;99.90
24158;DHT22;12316;50.904;4.200;2023-09-19T13:53:57;22.10;99.90
24158;DHT22;12316;50.904;4.200;2023-09-19T13:56:23;22.00;99.90
24158;DHT22;12316;50.904;4.200;2023-09-19T13:58:50;21.90;99.90
24158;DHT22;12316;50.904;4.200;2023-09-19T14:01:15;21.90;99.90
24158;DHT22;12316;50.904;4.200;2023-09-19T14:03:41;21.70;99.90
24158;DHT22;12316;50.904;4.200;2023-09-19T14:06:15;21.80;99.90
24158;DHT22;12316;50.904;4.200;2023-09-19T14:08:41;21.90;99.90
24158;DHT22;12316;50.904;4.200;2023-09-19T14:11:07;21.90;99.90
24158;DHT22;12316;50.904;4.200;2023-09-19T14:13:33;22.00;99.90
24158;DHT22;12316;50.904;4.200;2023-09-19T14:16:03;22.20;99.90
24158;DHT22;12316;50.904;4.200;2023-09-19T14:18:31;22.20;99.90
24158;DHT22;12316;50.904;4.200;2023-09-19T14:20:57;22.20;99.90
24158;DHT22;12316;50.904;4.200;2023-09-19T14:23:23;22.30;99.90
24158;DHT22;12316;50.904;4.200;2023-09-19T14:25:50;22.40;99.90
24158;DHT22;12316;50.904;4.200;2023-09-19T14:28:17;22.40;99.90
24158;DHT22;12316;50.904;4.200;2023-09-19T14:30:43;22.30;99.90
24158;DHT22;12316;50.904;4.200;2023-09-19T14:33:09;22.30;99.90
24158;DHT22;12316;50.904;4.200;2023-09-19T14:35:37;22.30;99.90
24158;DHT22;12316;50.904;4.200;2023-09-19T14:38:03;22.20;99.90
24158;DHT22;12316;50.904;4.200;2023-09-19T14:40:29;22.10;99.90
24158;DHT22;12316;50.904;4.200;2023-09-19T14:42:55;22.10;99.90
24158;DHT22;12316;50.904;4.200;2023-09-19T14:45:20;22.10;99.90
24158;DHT22;12316;50.904;4.200;2023-09-19T14:47:46;21.90;99.90
24158;DHT22;12316;50.904;4.200;2023-09-19T14:50:12;21.70;99.90
24158;DHT22;12316;50.904;4.200;2023-09-19T14:52:38;21.60;99.90
24158;DHT22;12316;50.904;4.200;2023-09-19T14:55:06;21.30;99.90
24158;DHT22;12316;50.904;4.200;2023-09-19T14:57:31;21.10;99.90
24158;DHT22;12316;50.904;4.200;2023-09-19T14:59:57;21.00;99.90
24158;DHT22;12316;50.904;4.200;2023-09-19T15:02:23;21.10;99.90
24158;DHT22;12316;50.904;4.200;2023-09-19T15:04:49;21.10;99.90
24158;DHT22;12316;50.904;4.200;2023-09-19T15:07:16;21.10;99.90
24158;DHT22;12316;50.904;4.200;2023-09-19T15:09:43;20.90;99.90
24158;DHT22;12316;50.904;4.200;2023-09-19T15:12:10;21.00;99.90
24158;DHT22;12316;50.904;4.200;2023-09-19T15:14:41;21.00;99.90
24158;DHT22;12316;50.904;4.200;2023-09-19T15:17:07;21.00;99.90
24158;DHT22;12316;50.904;4.200;2023-09-19T15:19:34;20.90;99.90
24158;DHT22;12316;50.904;4.200;2023-09-19T15:22:00;20.90;99.90
24158;DHT22;12316;50.904;4.200;2023-09-19T15:24:26;20.80;99.90
24158;DHT22;12316;50.904;4.200;2023-09-19T15:26:52;20.80;99.90
24158;DHT22;12316;50.904;4.200;2023-09-19T15:29:21;20.70;99.90
24158;DHT22;12316;50.904;4.200;2023-09-19T15:31:46;20.60;99.90
24158;DHT22;12316;50.904;4.200;2023-09-19T15:34:12;20.50;99.90
24158;DHT22;12316;50.904;4.200;2023-09-19T15:36:41;20.40;99.90
24158;DHT22;12316;50.904;4.200;2023-09-19T15:39:07;20.40;99.90
24158;DHT22;12316;50.904;4.200;2023-09-19T15:41:40;20.40;99.90
24158;DHT22;12316;50.904;4.200;2023-09-19T15:44:14;20.50;99.90
24158;DHT22;12316;50.904;4.200;2023-09-19T15:46:41;20.50;99.90
24158;DHT22;12316;50.904;4.200;2023-09-19T15:49:07;20.40;99.90
24158;DHT22;12316;50.904;4.200;2023-09-19T15:51:34;20.40;99.90
24158;DHT22;12316;50.904;4.200;2023-09-19T15:54:08;20.30;99.90
24158;DHT22;12316;50.904;4.200;2023-09-19T15:56:35;20.20;99.90
24158;DHT22;12316;50.904;4.200;2023-09-19T15:59:00;20.30;99.90
24158;DHT22;12316;50.904;4.200;2023-09-19T16:01:27;20.30;99.90
24158;DHT22;12316;50.904;4.200;2023-09-19T16:03:54;20.40;99.90
24158;DHT22;12316;50.904;4.200;2023-09-19T16:06:31;20.40;99.90
24158;DHT22;12316;50.904;4.200;2023-09-19T16:08:58;20.40;99.90
24158;DHT22;12316;50.904;4.200;2023-09-19T16:11:25;20.50;99.90
24158;DHT22;12316;50.904;4.200;2023-09-19T16:13:52;20.30;99.90
24158;DHT22;12316;50.904;4.200;2023-09-19T16:16:20;20.30;99.90
24158;DHT22;12316;50.904;4.200;2023-09-19T16:19:00;20.30;99.90
24158;DHT22;12316;50.904;4.200;2023-09-19T16:21:28;20.30;99.90
24158;DHT22;12316;50.904;4.200;2023-09-19T16:23:56;20.20;99.90
24158;DHT22;12316;50.904;4.200;2023-09-19T16:26:23;20.20;99.90
24158;DHT22;12316;50.904;4.200;2023-09-19T16:28:52;20.20;99.90